Time;durP1;ratioP1;P1;durP2;ratioP2;P2;SDS_P1;SDS_P2;PMS_P1;PMS_P2;Temp;Humidity;BMP_temperature;BMP_pressure;BME280_temperature;BME280_humidity;BME280_pressure;Samples;Min_cycle;Max_cycle;Signal;HPM_P1;HPM_P2
2023/09/09 00:02:25;;;;;;;0.00;0.00;;;;;;;17.04;100.00;101427.84;5092729;28;20380;-47
2023/09/09 00:04:52;;;;;;;0.00;0.00;;;;;;;17.01;100.00;101429.53;5093641;28;20028;-46
2023/09/09 00:07:18;;;;;;;0.00;0.00;;;;;;;17.11;100.00;101429.63;5093589;28;20081;-46
2023/09/09 00:09:43;;;;;;;0.00;0.00;;;;;;;17.12;100.00;101427.94;5093070;28;20021;-48
2023/09/09 00:12:08;;;;;;;0.00;0.00;;;;;;;17.08;100.00;101429.63;5093501;28;20024;-46
2023/09/09 00:14:34;;;;;;;0.10;0.10;;;;;;;17.14;100.00;101425.34;5093233;28;20055;-46
2023/09/09 00:16:59;;;;;;;0.10;0.10;;;;;;;17.06;100.00;101423.50;5092757;28;20024;-46
2023/09/09 00:19:25;;;;;;;0.00;0.00;;;;;;;17.10;100.00;101425.28;5093096;28;20032;-49
2023/09/09 00:21:50;;;;;;;0.10;0.10;;;;;;;17.06;100.00;101427.84;5093644;28;20045;-47
2023/09/09 00:24:16;;;;;;;0.00;0.00;;;;;;;17.04;100.00;101422.63;5092342;28;20141;-46
2023/09/09 00:26:41;;;;;;;0.00;0.00;;;;;;;16.98;100.00;101419.06;5093536;28;20032;-48
2023/09/09 00:29:06;;;;;;;0.00;0.00;;;;;;;16.95;100.00;101425.09;5093503;28;20090;-45
2023/09/09 00:31:32;;;;;;;0.00;0.00;;;;;;;16.90;100.00;101421.53;5092570;28;20063;-47
2023/09/09 00:33:57;;;;;;;0.10;0.10;;;;;;;16.85;100.00;101418.88;5093208;28;20062;-45
2023/09/09 00:36:23;;;;;;;0.00;0.00;;;;;;;16.65;100.00;101420.34;5093174;28;20047;-47
2023/09/09 00:38:48;;;;;;;0.10;0.10;;;;;;;16.59;100.00;101422.00;5091950;28;20157;-49
2023/09/09 00:41:18;;;;;;;0.00;0.00;;;;;;;16.49;100.00;101420.13;5092878;28;20029;-47
2023/09/09 00:43:44;;;;;;;0.00;0.00;;;;;;;16.32;100.00;101417.28;5092988;28;20468;-45
2023/09/09 00:46:11;;;;;;;0.10;0.10;;;;;;;16.34;100.00;101418.16;5092790;28;20035;-46
2023/09/09 00:48:38;;;;;;;0.10;0.10;;;;;;;16.32;100.00;101422.50;5093156;28;20028;-45
2023/09/09 00:51:04;;;;;;;0.05;0.05;;;;;;;16.29;100.00;101418.13;5092123;28;20379;-45
2023/09/09 00:53:31;;;;;;;0.10;0.10;;;;;;;16.38;100.00;101422.56;5092706;28;20031;-46
2023/09/09 00:55:59;;;;;;;0.00;0.00;;;;;;;16.41;100.00;101421.72;5092747;28;20109;-46
2023/09/09 00:58:24;;;;;;;0.00;0.00;;;;;;;16.49;100.00;101416.63;5092050;28;20107;-45
2023/09/09 01:00:49;;;;;;;0.10;0.10;;;;;;;16.44;100.00;101411.38;5092971;28;20440;-47
2023/09/09 01:03:15;;;;;;;0.00;0.00;;;;;;;16.42;100.00;101418.28;5092535;28;20599;-46
2023/09/09 01:05:40;;;;;;;0.00;0.00;;;;;;;16.45;100.00;101419.19;5092095;28;20027;-49
2023/09/09 01:08:06;;;;;;;0.00;0.00;;;;;;;16.44;100.00;101417.44;5092956;28;20044;-46
2023/09/09 01:10:32;;;;;;;0.00;0.00;;;;;;;16.41;100.00;101422.63;5092678;28;20046;-46
2023/09/09 01:12:57;;;;;;;0.00;0.00;;;;;;;16.36;100.00;101415.56;5092214;28;20059;-45
2023/09/09 01:15:22;;;;;;;0.10;0.10;;;;;;;16.27;100.00;101426.75;5092675;28;20044;-46
2023/09/09 01:17:49;;;;;;;0.00;0.00;;;;;;;16.22;100.00;101423.19;5093023;28;20032;-45
2023/09/09 01:20:17;;;;;;;0.00;0.00;;;;;;;16.15;100.00;101419.59;5091933;28;20039;-49
2023/09/09 01:22:46;;;;;;;0.08;0.08;;;;;;;16.20;100.00;101423.16;5092682;28;20434;-45
2023/09/09 01:25:12;;;;;;;0.00;0.00;;;;;;;16.11;100.00;101418.69;5092420;28;20117;-46
2023/09/09 01:27:37;;;;;;;0.10;0.10;;;;;;;16.16;100.00;101418.75;5091952;28;20028;-47
2023/09/09 01:30:04;;;;;;;0.00;0.00;;;;;;;16.18;100.00;101413.56;5092803;28;20046;-45
2023/09/09 01:32:29;;;;;;;0.00;0.00;;;;;;;16.13;100.00;101416.97;5091820;28;20383;-46
2023/09/09 01:34:55;;;;;;;0.00;0.00;;;;;;;16.11;100.00;101418.69;5091966;28;20472;-48
2023/09/09 01:37:20;;;;;;;0.10;0.10;;;;;;;16.04;100.00;101401.25;5092515;28;20074;-48
2023/09/09 01:39:46;;;;;;;0.00;0.00;;;;;;;16.04;100.00;101410.78;5092694;28;20024;-48
2023/09/09 01:42:11;;;;;;;0.10;0.10;;;;;;;16.01;100.00;101406.41;5091551;28;20024;-46
2023/09/09 01:44:37;;;;;;;0.10;0.10;;;;;;;16.15;100.00;101414.41;5092477;28;20039;-46
2023/09/09 01:47:02;;;;;;;0.10;0.10;;;;;;;16.23;100.00;101417.13;5092477;28;20024;-46
2023/09/09 01:49:28;;;;;;;0.10;0.10;;;;;;;16.15;100.00;101411.81;5091902;28;20380;-45
2023/09/09 01:51:53;;;;;;;0.10;0.10;;;;;;;16.15;100.00;101409.19;5095205;28;20379;-50
2023/09/09 01:54:18;;;;;;;0.10;0.10;;;;;;;16.28;100.00;101405.06;5095193;28;20016;-46
2023/09/09 01:56:44;;;;;;;0.10;0.10;;;;;;;16.27;100.00;101405.94;5096108;28;20040;-45
2023/09/09 01:59:09;;;;;;;0.10;0.10;;;;;;;16.28;100.00;101405.06;5096154;28;20107;-49
2023/09/09 02:01:34;;;;;;;0.10;0.10;;;;;;;16.28;100.00;101405.06;5095017;28;20069;-49
2023/09/09 02:04:00;;;;;;;0.00;0.00;;;;;;;16.21;100.00;101413.63;5096010;28;20028;-45
2023/09/09 02:06:27;;;;;;;0.10;0.10;;;;;;;16.15;100.00;101414.41;5095750;28;20020;-46
2023/09/09 02:08:52;;;;;;;0.10;0.10;;;;;;;16.17;100.00;101404.03;5095369;28;20024;-49
2023/09/09 02:11:17;;;;;;;0.00;0.00;;;;;;;15.99;100.00;101402.91;5095678;28;20038;-48
2023/09/09 02:13:43;;;;;;;0.00;0.00;;;;;;;15.83;100.00;101404.38;5095917;28;20016;-46
2023/09/09 02:16:08;;;;;;;0.10;0.10;;;;;;;15.63;100.00;101410.06;5095008;28;20464;-46
2023/09/09 02:18:37;;;;;;;0.08;0.08;;;;;;;15.51;100.00;101403.78;5095697;28;20489;-45
2023/09/09 02:21:03;;;;;;;0.10;0.10;;;;;;;15.43;100.00;101406.25;5095914;28;20394;-49
2023/09/09 02:23:28;;;;;;;0.10;0.10;;;;;;;15.37;100.00;101409.59;5094769;28;20566;-48
2023/09/09 02:25:54;;;;;;;0.00;0.00;;;;;;;15.36;100.00;101415.63;5095802;28;20032;-49
2023/09/09 02:28:20;;;;;;;0.00;0.00;;;;;;;15.43;100.00;101412.31;5095431;28;20402;-49
2023/09/09 02:30:45;;;;;;;0.10;0.10;;;;;;;15.50;100.00;101407.22;5094798;28;20115;-45
2023/09/09 02:33:10;;;;;;;0.00;0.00;;;;;;;15.54;100.00;101409.88;5095750;28;20020;-48
2023/09/09 02:35:41;;;;;;;0.10;0.10;;;;;;;15.48;100.00;101415.84;5095240;28;20103;-49
2023/09/09 02:38:06;;;;;;;0.10;0.10;;;;;;;15.51;100.00;101412.44;5095059;28;20057;-50
2023/09/09 02:40:31;;;;;;;0.10;0.10;;;;;;;15.48;100.00;101415.00;5095292;28;20035;-45
2023/09/09 02:42:56;;;;;;;0.10;0.10;;;;;;;15.37;100.00;101414.78;5095489;28;20070;-49
2023/09/09 02:45:22;;;;;;;0.10;0.10;;;;;;;15.35;100.00;101406.09;5094413;28;20063;-48
2023/09/09 02:47:47;;;;;;;0.10;0.10;;;;;;;15.19;100.00;101412.69;5095815;28;20115;-48
2023/09/09 02:50:12;;;;;;;0.10;0.10;;;;;;;15.22;100.00;101417.06;5095184;28;20394;-46
2023/09/09 02:52:38;;;;;;;0.10;0.10;;;;;;;15.17;100.00;101413.50;5094792;28;20464;-46
2023/09/09 02:55:03;;;;;;;0.10;0.10;;;;;;;15.11;100.00;101412.56;5095143;28;20069;-49
2023/09/09 02:57:28;;;;;;;0.10;0.10;;;;;;;15.19;100.00;101411.84;5094147;28;20024;-49
2023/09/09 02:59:54;;;;;;;0.10;0.10;;;;;;;15.10;100.00;101410.78;5095415;28;20357;-49
2023/09/09 03:02:19;;;;;;;0.10;0.10;;;;;;;15.06;100.00;101414.19;5094408;28;20486;-50
2023/09/09 03:04:44;;;;;;;0.10;0.10;;;;;;;14.98;100.00;101410.56;5094396;28;20131;-49
2023/09/09 03:07:10;;;;;;;0.10;0.10;;;;;;;14.88;100.00;101412.06;5095112;28;20024;-49
2023/09/09 03:09:36;;;;;;;0.00;0.00;;;;;;;14.90;100.00;101404.31;5094644;28;20032;-50
2023/09/09 03:12:02;;;;;;;0.10;0.10;;;;;;;14.91;100.00;101406.06;5094081;28;20024;-49
2023/09/09 03:14:36;;;;;;;0.10;0.10;;;;;;;14.94;100.00;101411.34;5094682;28;20037;-48
2023/09/09 03:17:02;;;;;;;0.10;0.10;;;;;;;14.93;100.00;101419.97;5094933;28;20157;-49
2023/09/09 03:19:28;;;;;;;0.10;0.10;;;;;;;15.00;100.00;101411.44;5093619;28;20459;-47
2023/09/09 03:21:53;;;;;;;0.10;0.10;;;;;;;14.97;100.00;101414.00;5094774;28;20450;-47
2023/09/09 03:24:18;;;;;;;0.10;0.10;;;;;;;15.02;100.00;101408.91;5094304;28;20039;-49
2023/09/09 03:26:44;;;;;;;0.10;0.10;;;;;;;15.02;100.00;101412.38;5093653;28;20047;-47
2023/09/09 03:29:09;;;;;;;0.00;0.00;;;;;;;15.01;100.00;101408.00;5094663;28;20069;-49
2023/09/09 03:31:35;;;;;;;0.10;0.10;;;;;;;15.06;100.00;101411.59;5094194;28;20426;-49
2023/09/09 03:34:00;;;;;;;0.10;0.10;;;;;;;15.03;100.00;101410.63;5093505;28;20031;-50
2023/09/09 03:36:25;;;;;;;0.10;0.10;;;;;;;15.06;100.00;101406.38;5094241;28;20070;-50
2023/09/09 03:38:51;;;;;;;0.10;0.10;;;;;;;15.05;100.00;101409.81;5094473;28;20024;-50
2023/09/09 03:41:16;;;;;;;0.10;0.10;;;;;;;15.07;100.00;101404.69;5092988;28;20395;-50
2023/09/09 03:43:41;;;;;;;0.10;0.10;;;;;;;15.07;100.00;101408.16;5094370;28;20032;-49
2023/09/09 03:46:07;;;;;;;0.10;0.10;;;;;;;15.02;100.00;101404.59;5094338;28;20047;-49
2023/09/09 03:48:32;;;;;;;0.10;0.10;;;;;;;15.06;100.00;101411.59;5093192;28;20115;-50
2023/09/09 03:51:02;;;;;;;0.10;0.10;;;;;;;15.09;100.00;101410.78;5094384;28;20115;-49
2023/09/09 03:53:28;;;;;;;0.10;0.10;;;;;;;15.18;100.00;101415.28;5093883;28;20024;-48
2023/09/09 03:55:54;;;;;;;0.10;0.10;;;;;;;15.15;100.00;101411.75;5092982;28;20040;-50
2023/09/09 03:58:20;;;;;;;0.10;0.10;;;;;;;15.07;100.00;101413.34;5093874;28;20366;-50
2023/09/09 04:00:46;;;;;;;0.10;0.10;;;;;;;15.05;100.00;101415.00;5093248;28;20024;-49
2023/09/09 04:03:12;;;;;;;0.10;0.10;;;;;;;15.04;100.00;101418.47;5093676;28;20049;-47
2023/09/09 04:05:37;;;;;;;0.10;0.10;;;;;;;15.02;100.00;101417.56;5093830;28;20028;-50
2023/09/09 04:08:08;;;;;;;0.10;0.10;;;;;;;15.01;100.00;101422.72;5093078;28;20028;-49
2023/09/09 04:10:33;;;;;;;0.10;0.10;;;;;;;14.96;100.00;101420.03;5093466;28;20055;-50
2023/09/09 04:12:59;;;;;;;0.10;0.10;;;;;;;14.91;100.00;101426.84;5093463;28;20056;-50
2023/09/09 04:15:24;;;;;;;0.08;0.08;;;;;;;14.95;100.00;101420.88;5092384;28;20059;-50
2023/09/09 04:17:49;;;;;;;0.10;0.10;;;;;;;14.98;100.00;101423.53;5093537;28;20040;-49
2023/09/09 04:20:15;;;;;;;0.10;0.10;;;;;;;14.95;100.00;101415.66;5093293;28;20070;-48
2023/09/09 04:22:40;;;;;;;0.10;0.10;;;;;;;14.81;100.00;101425.78;5092723;28;20016;-49
2023/09/09 04:25:05;;;;;;;0.10;0.10;;;;;;;14.82;100.00;101422.31;5093319;28;20020;-49
2023/09/09 04:27:31;;;;;;;0.10;0.10;;;;;;;14.75;100.00;101423.91;5093287;28;20032;-50
2023/09/09 04:29:57;;;;;;;0.10;0.10;;;;;;;14.74;100.00;101419.56;5092670;28;20017;-48
2023/09/09 04:32:23;;;;;;;0.10;0.10;;;;;;;14.75;100.00;101425.66;5093225;28;20024;-49
2023/09/09 04:34:48;;;;;;;0.10;0.10;;;;;;;14.66;100.00;101421.13;5093467;28;20024;-51
2023/09/09 04:37:14;;;;;;;0.10;0.10;;;;;;;14.64;100.00;101415.91;5092197;28;20455;-50
2023/09/09 04:39:39;;;;;;;0.10;0.10;;;;;;;14.60;100.00;101421.84;5093233;28;20032;-50
2023/09/09 04:42:05;;;;;;;0.10;0.10;;;;;;;14.61;100.00;101425.31;5093402;28;20035;-48
2023/09/09 04:44:30;;;;;;;0.10;0.10;;;;;;;14.68;100.00;101428.94;5092220;28;20016;-50
2023/09/09 04:46:55;;;;;;;0.00;0.00;;;;;;;14.59;100.00;101432.16;5093265;28;20100;-48
2023/09/09 04:49:22;;;;;;;0.10;0.10;;;;;;;14.46;100.00;101434.50;5092863;28;20149;-49
2023/09/09 04:51:48;;;;;;;0.10;0.10;;;;;;;14.53;100.00;101426.88;5092285;28;20052;-49
2023/09/09 04:54:13;;;;;;;0.10;0.10;;;;;;;14.43;100.00;101429.22;5092638;28;20379;-49
2023/09/09 04:56:39;;;;;;;0.10;0.10;;;;;;;14.32;100.00;101436.75;5092833;28;20044;-45
2023/09/09 04:59:04;;;;;;;0.10;0.10;;;;;;;14.22;100.00;101429.59;5092289;28;20020;-48
2023/09/09 05:01:30;;;;;;;0.10;0.10;;;;;;;14.11;100.00;101434.53;5092796;28;20032;-48
2023/09/09 05:03:55;;;;;;;0.10;0.10;;;;;;;13.93;100.00;101436.66;5092943;28;20023;-45
2023/09/09 05:06:20;;;;;;;0.10;0.10;;;;;;;13.74;100.00;101430.16;5091875;28;20146;-46
2023/09/09 05:08:46;;;;;;;0.30;0.30;;;;;;;13.61;100.00;101435.00;5092787;28;20070;-48
2023/09/09 05:11:11;;;;;;;0.20;0.20;;;;;;;13.50;100.00;101437.31;5091642;28;20020;-46
2023/09/09 05:13:37;;;;;;;0.25;0.25;;;;;;;13.49;100.00;101438.16;5092999;28;20036;-50
2023/09/09 05:16:02;;;;;;;0.20;0.20;;;;;;;13.53;100.00;101436.53;5093122;28;20098;-44
2023/09/09 05:18:28;;;;;;;0.20;0.20;;;;;;;13.67;100.00;101434.28;5091876;28;20095;-45
2023/09/09 05:20:53;;;;;;;0.15;0.15;;;;;;;13.70;100.00;101439.56;5092708;28;20073;-46
2023/09/09 05:23:19;;;;;;;0.13;0.13;;;;;;;13.68;100.00;101441.22;5092397;28;20551;-47
2023/09/09 05:25:44;;;;;;;0.10;0.10;;;;;;;13.62;100.00;101439.34;5094374;28;20046;-44
2023/09/09 05:28:09;;;;;;;0.20;0.20;;;;;;;13.64;100.00;101441.97;5096845;28;20490;-45
2023/09/09 05:30:40;;;;;;;0.20;0.20;;;;;;;13.65;100.00;101446.31;5096574;28;20039;-47
2023/09/09 05:33:05;;;;;;;0.20;0.20;;;;;;;13.72;100.00;101447.34;5096291;28;20023;-50
2023/09/09 05:35:30;;;;;;;0.10;0.10;;;;;;;13.78;100.00;101444.94;5096476;28;20482;-46
2023/09/09 05:37:56;;;;;;;0.20;0.20;;;;;;;13.87;100.00;101455.53;5096539;28;20036;-45
2023/09/09 05:40:21;;;;;;;0.20;0.20;;;;;;;13.95;100.00;101456.59;5095431;28;20016;-47
2023/09/09 05:42:46;;;;;;;0.20;0.20;;;;;;;14.04;100.00;101450.78;5096621;28;20052;-48
2023/09/09 05:45:11;;;;;;;0.75;0.60;;;;;;;14.26;100.00;101456.50;5096168;28;20022;-45
2023/09/09 05:47:37;;;;;;;0.10;0.10;;;;;;;14.31;100.00;101449.69;5095941;28;20463;-44
2023/09/09 05:50:04;;;;;;;0.30;0.30;;;;;;;14.47;100.00;101462.19;5096510;28;20494;-50
2023/09/09 05:52:29;;;;;;;0.10;0.10;;;;;;;14.65;100.00;101455.69;5096061;28;20031;-46
2023/09/09 05:54:55;;;;;;;0.10;0.10;;;;;;;14.84;100.00;101458.72;5095776;28;20024;-46
2023/09/09 05:57:21;;;;;;;0.52;0.47;;;;;;;14.93;100.00;101456.31;5095853;28;20040;-46
2023/09/09 05:59:46;;;;;;;0.20;0.20;;;;;;;15.08;100.00;101461.81;5096290;28;20032;-46
2023/09/09 06:02:12;;;;;;;0.13;0.13;;;;;;;15.22;100.00;101467.31;5095070;28;20059;-48
2023/09/09 06:04:41;;;;;;;0.93;0.80;;;;;;;15.27;100.00;101464.78;5096162;28;20131;-46
2023/09/09 06:07:06;;;;;;;0.10;0.10;;;;;;;15.43;100.00;101469.44;5096013;28;20463;-47
2023/09/09 06:09:32;;;;;;;0.70;0.70;;;;;;;15.48;100.00;101473.00;5094695;28;20027;-50
2023/09/09 06:11:57;;;;;;;0.80;0.70;;;;;;;15.53;100.00;101469.63;5095947;28;20085;-47
2023/09/09 06:14:22;;;;;;;0.63;0.60;;;;;;;15.55;100.00;101475.72;5094857;28;20096;-48
2023/09/09 06:16:48;;;;;;;1.05;0.80;;;;;;;15.56;100.00;101480.09;5096043;28;20048;-47
2023/09/09 06:19:13;;;;;;;0.85;0.70;;;;;;;15.58;100.00;101474.06;5095715;28;20488;-51
2023/09/09 06:21:38;;;;;;;0.70;0.65;;;;;;;15.60;100.00;101477.56;5095079;28;20093;-46
2023/09/09 06:24:06;;;;;;;0.10;0.10;;;;;;;15.74;100.00;101479.56;5095992;28;20036;-46
2023/09/09 06:26:33;;;;;;;;;;;;;;;15.85;100.00;101482.38;5095725;28;20028;-49
2023/09/09 06:28:59;;;;;;;0.50;0.50;;;;;;;15.84;100.00;101488.41;5095004;28;19912;-49
2023/09/09 06:31:24;;;;;;;0.15;0.15;;;;;;;15.86;100.00;101490.19;5095251;28;20076;-46
2023/09/09 06:33:50;;;;;;;0.40;0.40;;;;;;;15.81;100.00;101494.44;5095561;28;20035;-48
2023/09/09 06:36:16;;;;;;;0.10;0.10;;;;;;;16.02;100.00;101499.13;5093701;28;20132;-44
2023/09/09 06:38:42;;;;;;;0.20;0.20;;;;;;;16.02;100.00;101500.88;5095713;28;20035;-45
2023/09/09 06:41:07;;;;;;;0.20;0.20;;;;;;;15.98;100.00;101505.13;5095646;28;20021;-45
2023/09/09 06:43:33;;;;;;;0.10;0.10;;;;;;;16.06;100.00;101500.06;5094314;28;20024;-45
2023/09/09 06:46:00;;;;;;;0.17;0.17;;;;;;;16.22;100.00;101496.03;5095408;28;20521;-45
2023/09/09 06:48:25;;;;;;;0.40;0.40;;;;;;;16.22;100.00;101498.63;5095027;28;20476;-47
2023/09/09 06:50:51;;;;;;;0.50;0.50;;;;;;;16.18;100.00;101507.19;5094363;28;20475;-48
2023/09/09 06:53:16;;;;;;;0.30;0.30;;;;;;;16.17;100.00;101513.28;5094751;28;20031;-45
2023/09/09 06:55:46;;;;;;;0.40;0.40;;;;;;;16.16;100.00;101516.72;5095134;28;20111;-45
2023/09/09 06:58:14;;;;;;;0.25;0.25;;;;;;;16.30;100.00;101510.00;5094078;28;20051;-46
2023/09/09 07:00:40;;;;;;;0.10;0.10;;;;;;;16.34;100.00;101506.59;5095135;28;20386;-44
2023/09/09 07:03:07;;;;;;;0.10;0.10;;;;;;;16.49;100.00;101507.69;5095063;28;20020;-45
2023/09/09 07:05:32;;;;;;;0.00;0.00;;;;;;;16.70;100.00;101518.44;5093711;28;20028;-46
2023/09/09 07:07:58;;;;;;;0.10;0.10;;;;;;;16.63;100.00;101516.63;5095101;28;20016;-49
2023/09/09 07:10:23;;;;;;;0.10;0.10;;;;;;;16.67;100.00;101523.63;5094705;28;20085;-45
2023/09/09 07:12:49;;;;;;;0.10;0.10;;;;;;;16.74;100.00;101520.25;5094109;28;20030;-49
2023/09/09 07:15:15;;;;;;;0.10;0.10;;;;;;;16.86;100.00;101522.16;5094575;28;20430;-47
2023/09/09 07:17:43;;;;;;;0.00;0.00;;;;;;;17.14;100.00;101525.16;5093911;28;20034;-51
2023/09/09 07:20:08;;;;;;;;;;;;;;;17.25;100.00;101527.94;5095031;28;20016;-49
2023/09/09 07:22:34;;;;;;;0.03;0.03;;;;;;;17.34;100.00;101525.44;5094250;28;19915;-45
2023/09/09 07:24:59;;;;;;;0.10;0.10;;;;;;;17.47;100.00;101534.28;5093864;28;20040;-46
2023/09/09 07:27:24;;;;;;;0.10;0.10;;;;;;;17.65;100.00;101528.41;5094441;28;20019;-50
2023/09/09 07:29:50;;;;;;;0.10;0.10;;;;;;;17.71;100.00;101535.41;5094407;28;20520;-46
2023/09/09 07:32:15;;;;;;;0.10;0.10;;;;;;;17.61;100.00;101526.59;5093380;28;20023;-47
2023/09/09 07:34:40;;;;;;;0.17;0.17;;;;;;;17.90;100.00;101528.66;5094327;28;20028;-45
2023/09/09 07:37:05;;;;;;;0.10;0.10;;;;;;;17.84;100.00;101539.03;5094177;28;20019;-45
2023/09/09 07:39:44;;;;;;;0.10;0.10;;;;;;;17.93;100.00;101541.75;5093561;28;20486;-46
2023/09/09 07:42:09;;;;;;;0.10;0.10;;;;;;;17.99;100.00;101541.81;5094322;28;20023;-47
2023/09/09 07:44:34;;;;;;;0.00;0.00;;;;;;;18.15;100.00;101544.59;5093965;28;20024;-45
2023/09/09 07:46:59;;;;;;;0.00;0.00;;;;;;;18.27;100.00;101549.94;5093349;28;20427;-45
2023/09/09 07:49:25;;;;;;;0.00;0.00;;;;;;;18.51;100.00;101545.75;5092609;28;20030;-45
2023/09/09 07:51:50;;;;;;;0.00;0.00;;;;;;;18.62;100.00;101554.56;5094180;28;20039;-45
2023/09/09 07:54:15;;;;;;;0.00;0.00;;;;;;;18.75;100.00;101556.38;5092921;28;20020;-45
2023/09/09 07:56:45;;;;;;;0.00;0.00;;;;;;;18.93;100.00;101557.41;5093860;28;20523;-45
2023/09/09 07:59:10;;;;;;;0.00;0.00;;;;;;;19.01;100.00;101554.84;5094131;28;20082;-46
2023/09/09 08:01:36;;;;;;;0.00;0.00;;;;;;;19.04;100.00;101554.84;5092577;28;20020;-47
2023/09/09 08:04:01;;;;;;;0.00;0.00;;;;;;;19.11;100.00;101555.75;5093724;28;20024;-47
2023/09/09 08:06:27;;;;;;;0.00;0.00;;;;;;;19.22;100.00;101561.91;5093442;28;20360;-48
2023/09/09 08:08:52;;;;;;;0.00;0.00;;;;;;;19.32;100.00;101555.00;5093006;28;20482;-49
2023/09/09 08:11:17;;;;;;;0.00;0.00;;;;;;;19.42;100.00;101562.91;5093298;28;20028;-46
2023/09/09 08:13:43;;;;;;;0.00;0.00;;;;;;;19.52;100.00;101557.69;5093694;28;20052;-46
2023/09/09 08:16:08;;;;;;;0.00;0.00;;;;;;;19.52;100.00;101557.69;5093076;28;20645;-46
2023/09/09 08:18:34;;;;;;;0.00;0.00;;;;;;;19.76;100.00;101561.28;5093340;28;20028;-50
2023/09/09 08:21:00;;;;;;;0.00;0.00;;;;;;;19.80;100.00;101565.66;5092827;28;20536;-46
2023/09/09 08:23:26;;;;;;;0.10;0.10;;;;;;;19.84;100.00;101570.91;5093219;28;20527;-46
2023/09/09 08:25:51;;;;;;;0.00;0.00;;;;;;;19.94;100.00;101563.97;5093598;28;20024;-50
2023/09/09 08:28:17;;;;;;;0.00;0.00;;;;;;;19.90;100.00;101568.31;5092394;28;20437;-48
2023/09/09 08:30:42;;;;;;;0.00;0.00;;;;;;;19.99;100.00;101567.47;5093362;28;20024;-46
2023/09/09 08:33:07;;;;;;;0.00;0.00;;;;;;;20.03;100.00;101569.22;5093240;28;20069;-45
2023/09/09 08:35:33;;;;;;;0.00;0.00;;;;;;;20.11;100.00;101568.34;5092172;28;20024;-46
2023/09/09 08:37:59;;;;;;;0.00;0.00;;;;;;;20.21;100.00;101580.59;5093399;28;20058;-46
2023/09/09 08:40:29;;;;;;;0.00;0.00;;;;;;;20.27;100.00;101572.75;5092596;28;20043;-45
2023/09/09 08:43:07;;;;;;;0.00;0.00;;;;;;;20.43;100.00;101578.00;5092569;28;20016;-47
2023/09/09 08:45:43;;;;;;;0.00;0.00;;;;;;;20.63;100.00;101571.00;5092810;28;20027;-46
2023/09/09 08:48:17;;;;;;;0.00;0.00;;;;;;;20.58;100.00;101583.22;5093471;28;20024;-45
2023/09/09 08:50:44;;;;;;;0.00;0.00;;;;;;;20.80;100.00;101575.38;5092368;28;20020;-45
2023/09/09 08:53:12;;;;;;;;;;;;;;;21.07;100.00;101584.06;5093579;28;20050;-46
2023/09/09 08:55:38;;;;;;;0.00;0.00;;;;;;;21.07;100.00;101584.06;5092927;28;19927;-45
2023/09/09 08:58:05;;;;;;;0.00;0.00;;;;;;;21.25;100.00;101584.00;5092162;28;20040;-45
2023/09/09 09:00:33;;;;;;;0.00;0.00;;;;;;;21.40;100.00;101584.84;5092490;28;20069;-45
2023/09/09 09:03:02;;;;;;;0.00;0.00;;;;;;;21.67;100.00;101584.75;5092800;28;20371;-47
2023/09/09 09:05:32;;;;;;;0.00;0.00;;;;;;;21.92;100.00;101592.47;5092015;28;20031;-45
2023/09/09 09:07:59;;;;;;;0.00;0.00;;;;;;;22.09;100.00;101589.78;5092825;28;20099;-46
2023/09/09 09:10:25;;;;;;;0.00;0.00;;;;;;;22.25;100.00;101590.53;5091588;28;20379;-46
2023/09/09 09:12:50;;;;;;;0.00;0.00;;;;;;;22.50;100.00;101591.28;5093121;28;20027;-45
2023/09/09 09:15:15;;;;;;;0.00;0.00;;;;;;;22.75;100.00;101595.41;5092699;28;20103;-50
2023/09/09 09:17:42;;;;;;;0.00;0.00;;;;;;;22.84;100.00;101595.34;5092296;28;20024;-45
2023/09/09 09:20:23;;;;;;;0.00;0.00;;;;;;;23.26;100.00;101589.69;5092975;28;20032;-48
2023/09/09 09:22:49;;;;;;;0.00;0.00;;;;;;;23.58;100.00;101605.06;5092990;28;20073;-49
2023/09/09 09:25:22;;;;;;;0.00;0.00;;;;;;;23.80;100.00;101605.66;5091623;28;20020;-46
2023/09/09 09:27:48;;;;;;;0.00;0.00;;;;;;;24.01;100.00;101601.00;5092646;28;20036;-47
2023/09/09 09:30:13;;;;;;;0.00;0.00;;;;;;;24.05;100.00;101596.56;5092587;28;20020;-46
2023/09/09 09:32:42;;;;;;;0.00;0.00;;;;;;;24.32;100.00;101609.34;5091950;28;20513;-50
2023/09/09 09:35:26;;;;;;;0.00;0.00;;;;;;;24.79;100.00;101608.56;5092694;28;20383;-45
2023/09/09 09:38:06;;;;;;;0.00;0.00;;;;;;;25.11;100.00;101600.09;5092857;28;20032;-51
2023/09/09 09:40:32;;;;;;;0.00;0.00;;;;;;;25.85;97.11;101591.53;5091652;28;20333;-45
2023/09/09 09:42:57;;;;;;;0.00;0.00;;;;;;;26.13;93.54;101591.81;5092473;28;20384;-46
2023/09/09 09:45:24;;;;;;;0.00;0.00;;;;;;;26.83;88.44;101601.56;5091496;28;20023;-47
2023/09/09 09:47:50;;;;;;;0.00;0.00;;;;;;;26.83;86.21;101604.19;5092500;28;20035;-49
2023/09/09 09:50:28;;;;;;;0.00;0.00;;;;;;;27.71;84.81;101603.53;5092077;28;20028;-46
2023/09/09 09:53:03;;;;;;;0.00;0.00;;;;;;;28.25;79.65;101602.72;5091838;28;20032;-47
2023/09/09 09:55:30;;;;;;;0.00;0.00;;;;;;;28.98;73.32;101605.56;5092207;28;20079;-50
2023/09/09 09:58:01;;;;;;;0.00;0.00;;;;;;;29.13;67.59;101609.47;5092385;28;20460;-45
2023/09/09 10:00:28;;;;;;;0.00;0.00;;;;;;;29.75;64.61;101612.50;5091306;28;20472;-50
2023/09/09 10:02:56;;;;;;;0.00;0.00;;;;;;;30.02;60.81;101615.00;5092383;28;20468;-50
2023/09/09 10:05:23;;;;;;;0.00;0.00;;;;;;;30.48;57.36;101613.13;5092152;28;20107;-49
2023/09/09 10:08:12;;;;;;;0.00;0.00;;;;;;;30.70;54.77;101606.91;5091723;28;20016;-50
2023/09/09 10:10:44;;;;;;;0.00;0.00;;;;;;;31.31;49.58;101607.78;5091786;28;20471;-45
2023/09/09 10:13:26;;;;;;;0.00;0.00;;;;;;;31.78;52.40;101612.72;5095121;28;20356;-47
2023/09/09 10:15:54;;;;;;;0.00;0.00;;;;;;;31.96;47.63;101612.78;5095876;28;20024;-46
2023/09/09 10:18:22;;;;;;;0.00;0.00;;;;;;;32.21;47.53;101611.63;5095622;28;20034;-49
2023/09/09 10:20:49;;;;;;;0.00;0.00;;;;;;;32.44;46.16;101611.31;5095006;28;20562;-50
2023/09/09 10:23:16;;;;;;;;;;;;;;;33.11;54.83;101608.75;5096125;28;20478;-48
2023/09/09 10:25:42;;;;;;;0.00;0.00;;;;;;;32.84;41.76;101616.44;5096298;28;19912;-51
2023/09/09 10:28:09;;;;;;;0.00;0.00;;;;;;;32.69;41.37;101604.69;5095133;28;20024;-46
2023/09/09 10:30:36;;;;;;;0.00;0.00;;;;;;;32.99;40.53;101602.25;5095391;28;20035;-48
2023/09/09 10:33:04;;;;;;;0.00;0.00;;;;;;;33.52;42.04;101606.59;5095690;28;20028;-50
2023/09/09 10:35:29;;;;;;;0.00;0.00;;;;;;;32.81;39.99;101598.75;5094458;28;20384;-46
2023/09/09 10:37:56;;;;;;;0.00;0.00;;;;;;;32.77;37.78;101602.53;5095513;28;20516;-46
2023/09/09 10:40:22;;;;;;;0.00;0.00;;;;;;;32.72;36.87;101604.56;5095479;28;20028;-46
2023/09/09 10:42:48;;;;;;;;;;;;;;;34.14;42.24;101604.00;5095307;28;20048;-47
2023/09/09 10:45:32;;;;;;;0.00;0.00;;;;;;;34.12;37.95;101604.06;5095160;28;19947;-51
2023/09/09 10:48:01;;;;;;;0.00;0.00;;;;;;;33.90;35.13;101599.13;5095535;28;20012;-48
2023/09/09 10:50:47;;;;;;;0.00;0.00;;;;;;;34.79;37.15;101609.06;5094090;28;20035;-50
2023/09/09 10:53:13;;;;;;;0.00;0.00;;;;;;;34.90;32.26;101599.53;5094859;28;20464;-50
2023/09/09 10:55:38;;;;;;;0.00;0.00;;;;;;;34.71;32.43;101599.78;5094726;28;20399;-49
2023/09/09 10:58:06;;;;;;;0.00;0.00;;;;;;;34.74;33.28;101603.13;5094897;28;20032;-50
2023/09/09 11:00:39;;;;;;;0.00;0.00;;;;;;;34.43;35.85;101604.97;5094615;28;20384;-46
2023/09/09 11:03:15;;;;;;;0.00;0.00;;;;;;;34.73;36.51;101604.09;5094240;28;20023;-50
2023/09/09 11:06:31;;;;;;;0.00;0.00;;;;;;;35.36;38.29;101602.03;5095126;28;20052;-49
2023/09/09 11:09:02;;;;;;;0.00;0.00;;;;;;;35.42;33.81;101598.97;5032565;28;20034;-51
2023/09/09 11:11:31;;;;;;;0.00;0.00;;;;;;;35.62;33.29;101596.81;5089321;28;20048;-51
2023/09/09 11:14:07;;;;;;;0.00;0.00;;;;;;;35.36;35.70;101594.00;5095081;28;20047;-50
2023/09/09 11:16:36;;;;;;;0.00;0.00;;;;;;;35.34;33.29;101595.03;5094518;28;20020;-47
2023/09/09 11:19:10;;;;;;;0.00;0.00;;;;;;;35.79;34.41;101592.19;5094060;28;20031;-51